PANC/ANC METAR and TAF weather

Enter ICAO airport designator
Station Type Date Time Source
PANC METAR 2020/11/27 13:53 UTC NOAA

PANC 271353Z 36005KT 10SM OVC110 M03/M06 A2944 RMK AO2 SLP971 T10331056


Station Type Date Time Source
PANC Decoded METAR 2020/11/27 13:53 UTC NOAA

TED STEVENS ANCHORAGE INTERNATIONAL , AK, United States (PANC) 61-10N 150-02W 48M
Nov 27, 2020 - 08:53 AM EST / 2020.11.27 1353 UTC
Wind: from the N (360 degrees) at 6 MPH (5 KT):0
Visibility: 10 mile(s):0
Sky conditions: overcast
Temperature: 26.1 F (-3.3 C)
Windchill: 19 F (-7 C):1
Dew Point: 21.9 F (-5.6 C)
Relative Humidity: 84%
Pressure (altimeter): 29.44 in. Hg (996 hPa)
ob: PANC 271353Z 36005KT 10SM OVC110 M03/M06 A2944 RMK AO2 SLP971 T10331056
cycle: 14

Station Type Date Time Source
PANC TAF 2020/11/27 12:39 UTC NOAA

TAF PANC 271136Z 2712/2818 31008KT P6SM -SHSN SCT050 BKN100
FM271500 02005KT 3SM -SN BR SCT015 OVC025
FM272000 04005KT P6SM -SHSN SCT015 OVC035
FM280000 VRB05KT P6SM OVC050

Example: see airport list